createdAt,value
2018-01-04T00:00:49.687Z,10.86
2018-01-04T00:03:18.039Z,10.91
2018-01-04T00:05:46.467Z,10.16
2018-01-04T00:08:14.837Z,9.72
2018-01-04T00:10:43.195Z,10.10
2018-01-04T00:13:11.652Z,10.25
2018-01-04T00:15:40.008Z,10.17
2018-01-04T00:18:08.397Z,11.04
2018-01-04T00:20:36.771Z,9.83
2018-01-04T00:23:05.146Z,9.71
2018-01-04T00:25:33.511Z,9.99
2018-01-04T00:28:01.905Z,10.80
2018-01-04T00:30:30.284Z,9.60
2018-01-04T00:32:58.665Z,11.01
2018-01-04T00:35:27.068Z,10.60
2018-01-04T00:37:55.426Z,10.03
2018-01-04T00:40:23.776Z,10.12
2018-01-04T00:42:52.167Z,11.14
2018-01-04T00:45:20.518Z,9.87
2018-01-04T00:47:48.888Z,10.71
2018-01-04T00:50:17.280Z,10.06
2018-01-04T00:52:45.645Z,10.58
2018-01-04T00:55:14.066Z,9.81
2018-01-04T00:57:42.419Z,10.51
2018-01-04T01:00:10.879Z,10.49
2018-01-04T01:02:39.242Z,10.95
2018-01-04T01:05:07.622Z,9.31
2018-01-04T01:07:36.023Z,9.55
2018-01-04T01:10:04.446Z,10.57
2018-01-04T01:12:32.802Z,9.39
2018-01-04T01:15:01.157Z,10.08
2018-01-04T01:17:29.580Z,10.57
2018-01-04T01:19:57.946Z,10.21
2018-01-04T01:22:26.338Z,9.87
2018-01-04T01:24:54.691Z,10.02
2018-01-04T01:27:23.036Z,9.09
2018-01-04T01:29:51.387Z,10.70
2018-01-04T01:32:19.751Z,10.40
2018-01-04T01:34:48.144Z,10.34
2018-01-04T01:37:16.618Z,10.26
2018-01-04T01:39:45.027Z,10.66
2018-01-04T01:42:13.366Z,9.49
2018-01-04T01:44:41.722Z,10.13
2018-01-04T01:47:10.106Z,10.04
2018-01-04T01:49:38.459Z,10.21
2018-01-04T01:52:06.888Z,9.95
2018-01-04T01:54:35.382Z,10.79
2018-01-04T01:57:03.781Z,10.53
2018-01-04T01:59:32.313Z,10.00
2018-01-04T02:02:00.670Z,9.49
2018-01-04T02:04:29.012Z,9.95
2018-01-04T02:06:57.455Z,10.39
2018-01-04T02:09:25.824Z,10.98
2018-01-04T02:11:54.216Z,10.27
2018-01-04T02:14:22.566Z,11.36
2018-01-04T02:16:50.925Z,10.15
2018-01-04T02:19:30.896Z,9.44
2018-01-04T02:22:10.885Z,9.78
2018-01-04T02:24:51.001Z,10.17
2018-01-04T02:30:36.660Z,9.26
2018-01-04T02:33:26.910Z,10.26
2018-01-04T02:36:07.035Z,9.69
2018-01-04T02:38:46.807Z,9.70
2018-01-04T02:41:26.603Z,9.96
2018-01-04T02:43:59.457Z,10.71
2018-01-04T02:46:27.539Z,10.77
2018-01-04T02:48:55.628Z,10.75
2018-01-04T02:51:23.712Z,9.66
2018-01-04T02:53:51.795Z,11.63
2018-01-04T02:56:19.867Z,10.46
2018-01-04T02:58:47.988Z,10.29
2018-01-04T03:01:16.055Z,11.36
2018-01-04T03:03:44.152Z,11.32
2018-01-04T03:06:12.250Z,10.67
2018-01-04T03:08:40.322Z,9.15
2018-01-04T03:11:08.388Z,8.86
2018-01-04T03:13:36.483Z,9.21
2018-01-04T03:16:04.558Z,9.25
2018-01-04T03:18:32.660Z,9.72
2018-01-04T03:21:00.813Z,8.57
2018-01-04T03:23:34.560Z,8.46
2018-01-04T03:26:09.304Z,8.59
2018-01-04T03:28:43.015Z,8.77
2018-01-04T03:31:16.584Z,8.49
2018-01-04T03:33:50.278Z,8.07
2018-01-04T03:36:24.003Z,8.39
2018-01-04T03:38:57.681Z,8.63
2018-01-04T03:41:31.419Z,8.67
2018-01-04T03:44:04.977Z,9.05
2018-01-04T03:46:38.739Z,8.94
2018-01-04T03:49:12.350Z,9.63
2018-01-04T03:51:46.154Z,8.78
2018-01-04T03:54:19.699Z,8.55
2018-01-04T03:56:53.429Z,8.96
2018-01-04T03:59:27.099Z,8.51
2018-01-04T04:02:00.709Z,8.75
2018-01-04T04:04:34.180Z,9.08
2018-01-04T04:07:07.965Z,9.12
2018-01-04T04:09:36.159Z,9.33
2018-01-04T04:12:04.224Z,8.48
2018-01-04T04:14:32.343Z,9.12
2018-01-04T04:17:00.427Z,8.30
2018-01-04T04:19:28.499Z,8.89
2018-01-04T04:21:56.623Z,9.07
2018-01-04T04:24:24.712Z,8.55
2018-01-04T04:26:52.806Z,8.88
2018-01-04T04:29:20.911Z,8.95
2018-01-04T04:31:49.007Z,8.67
2018-01-04T04:34:17.072Z,8.02
2018-01-04T04:36:45.153Z,9.12
2018-01-04T04:39:13.218Z,8.63
2018-01-04T04:41:41.326Z,8.83
2018-01-04T04:44:09.392Z,9.53
2018-01-04T04:46:37.463Z,8.72
2018-01-04T04:49:05.572Z,8.59
2018-01-04T04:51:33.639Z,8.55
2018-01-04T04:54:01.848Z,8.78
2018-01-04T04:56:29.924Z,9.36
2018-01-04T04:58:57.995Z,9.66
2018-01-04T05:01:26.056Z,9.60
2018-01-04T05:03:54.134Z,9.39
2018-01-04T05:06:22.232Z,8.97
2018-01-04T05:08:50.298Z,10.31
2018-01-04T05:11:18.460Z,10.43
2018-01-04T05:13:46.538Z,10.72
2018-01-04T05:16:14.607Z,11.01
2018-01-04T05:18:42.704Z,10.80
2018-01-04T05:21:10.786Z,11.41
2018-01-04T05:23:38.954Z,10.88
2018-01-04T05:26:07.042Z,12.10
2018-01-04T05:28:35.116Z,10.51
2018-01-04T05:31:03.334Z,10.81
2018-01-04T05:33:31.420Z,11.80
2018-01-04T05:35:59.492Z,10.40
2018-01-04T05:38:27.593Z,10.58
2018-01-04T05:40:55.658Z,10.93
2018-01-04T05:43:23.808Z,10.49
2018-01-04T05:45:51.896Z,10.48
2018-01-04T05:48:19.987Z,10.42
2018-01-04T05:50:48.080Z,9.87
2018-01-04T05:53:16.168Z,10.96
2018-01-04T05:55:44.274Z,11.16
2018-01-04T05:58:12.326Z,9.76
2018-01-04T06:00:40.415Z,9.87
2018-01-04T06:03:08.645Z,10.52
2018-01-04T06:05:36.752Z,11.29
2018-01-04T06:08:04.869Z,10.45
2018-01-04T06:10:32.956Z,10.22
2018-01-04T06:13:01.033Z,10.46
2018-01-04T06:15:29.131Z,10.03
2018-01-04T06:17:57.266Z,9.78
2018-01-04T06:20:25.343Z,10.29
2018-01-04T06:22:53.435Z,10.09
2018-01-04T06:25:21.524Z,10.22
2018-01-04T06:27:49.612Z,9.48
2018-01-04T06:30:17.690Z,10.55
2018-01-04T06:32:45.898Z,10.62
2018-01-04T06:35:13.999Z,11.17
2018-01-04T06:37:42.059Z,10.01
2018-01-04T06:40:10.147Z,11.12
2018-01-04T06:42:38.231Z,10.76
2018-01-04T06:45:06.340Z,10.00
2018-01-04T06:47:34.452Z,10.82
2018-01-04T06:50:02.516Z,9.90
2018-01-04T06:52:30.590Z,11.72
2018-01-04T06:54:58.675Z,11.36
2018-01-04T06:57:26.773Z,11.22
2018-01-04T06:59:54.895Z,11.37
2018-01-04T07:02:22.990Z,11.21
2018-01-04T07:04:51.055Z,9.99
2018-01-04T07:07:19.156Z,10.05
2018-01-04T07:09:47.235Z,10.28
2018-01-04T07:12:15.348Z,11.33
2018-01-04T07:14:43.419Z,10.75
2018-01-04T07:17:11.506Z,10.63
2018-01-04T07:19:39.628Z,10.30
2018-01-04T07:22:07.702Z,10.92
2018-01-04T07:24:35.830Z,11.15
2018-01-04T07:27:03.899Z,10.49
2018-01-04T07:29:31.979Z,10.36
2018-01-04T07:32:00.064Z,10.13
2018-01-04T07:34:28.144Z,10.25
2018-01-04T07:36:56.265Z,10.40
2018-01-04T07:39:24.354Z,11.13
2018-01-04T07:41:52.720Z,10.91
2018-01-04T07:44:21.147Z,9.64
2018-01-04T07:46:49.491Z,9.49
2018-01-04T07:49:17.860Z,9.31
2018-01-04T07:51:46.214Z,9.60
2018-01-04T07:54:14.598Z,11.31
2018-01-04T07:56:42.967Z,9.49
2018-01-04T07:59:11.358Z,10.01
2018-01-04T08:01:39.732Z,10.84
2018-01-04T08:04:08.117Z,10.65
2018-01-04T08:06:36.507Z,11.01
2018-01-04T08:09:05.029Z,10.51
2018-01-04T08:11:33.457Z,11.10
2018-01-04T08:14:01.855Z,10.58
2018-01-04T08:16:30.210Z,10.76
2018-01-04T08:18:58.578Z,10.21
2018-01-04T08:21:26.971Z,11.16
2018-01-04T08:23:55.371Z,10.79
2018-01-04T08:26:23.756Z,11.12
2018-01-04T08:28:52.274Z,10.53
2018-01-04T08:31:20.708Z,11.40
2018-01-04T08:33:49.120Z,11.34
2018-01-04T08:36:17.485Z,11.87
2018-01-04T08:38:45.882Z,10.96
2018-01-04T08:41:14.265Z,10.26
2018-01-04T08:43:46.603Z,10.48
2018-01-04T08:46:15.072Z,11.17
2018-01-04T08:48:43.440Z,10.43
2018-01-04T08:51:11.812Z,11.29
2018-01-04T08:53:40.168Z,10.99
2018-01-04T08:56:08.550Z,11.11
2018-01-04T08:58:36.921Z,11.37
2018-01-04T09:01:05.327Z,11.04
2018-01-04T09:03:33.691Z,11.28
2018-01-04T09:06:02.167Z,10.69
2018-01-04T09:08:30.608Z,11.06
2018-01-04T09:10:58.983Z,10.74
2018-01-04T09:13:27.382Z,10.35
2018-01-04T09:15:55.823Z,10.51
2018-01-04T09:18:24.188Z,10.70
2018-01-04T09:20:52.800Z,11.16
2018-01-04T09:23:21.176Z,10.38
2018-01-04T09:25:49.558Z,10.09
2018-01-04T09:28:17.908Z,11.21
2018-01-04T09:30:46.303Z,10.87
2018-01-04T09:33:14.766Z,11.02
2018-01-04T09:35:43.141Z,10.74
2018-01-04T09:38:11.500Z,10.52
2018-01-04T09:40:39.856Z,11.13
2018-01-04T09:43:08.202Z,11.48
2018-01-04T09:45:36.586Z,11.01
2018-01-04T09:48:05.017Z,10.86
2018-01-04T09:50:33.407Z,10.74
2018-01-04T09:53:01.786Z,10.99
2018-01-04T09:55:31.091Z,10.76
2018-01-04T09:57:59.461Z,10.03
2018-01-04T10:00:27.989Z,10.71
2018-01-04T10:02:56.333Z,11.60
2018-01-04T10:05:24.769Z,11.28
2018-01-04T10:07:53.270Z,10.20
2018-01-04T10:10:21.648Z,10.66
2018-01-04T10:12:49.996Z,11.10
2018-01-04T10:15:18.384Z,10.77
2018-01-04T10:17:46.788Z,10.50
2018-01-04T10:20:15.160Z,11.12
2018-01-04T10:22:43.553Z,10.40
2018-01-04T10:25:11.929Z,11.15
2018-01-04T10:27:40.316Z,10.55
2018-01-04T10:30:08.675Z,10.35
2018-01-04T10:32:37.036Z,11.01
2018-01-04T10:35:05.436Z,10.68
2018-01-04T10:37:33.812Z,11.06
2018-01-04T10:40:02.177Z,11.46
2018-01-04T10:42:30.623Z,11.03
2018-01-04T10:44:59.003Z,10.19
2018-01-04T10:47:27.491Z,10.72
2018-01-04T10:52:30.590Z,11.05
2018-01-04T10:54:59.116Z,10.94
2018-01-04T10:57:27.482Z,11.72
2018-01-04T10:59:55.909Z,10.25
2018-01-04T11:02:24.264Z,11.03
2018-01-04T11:04:52.659Z,11.22
2018-01-04T11:07:21.068Z,11.15
2018-01-04T11:09:49.424Z,10.06
2018-01-04T11:12:17.786Z,10.03
2018-01-04T11:14:46.268Z,9.89
2018-01-04T11:17:14.639Z,9.50
2018-01-04T11:19:42.979Z,9.62
2018-01-04T11:22:11.370Z,10.25
2018-01-04T11:24:39.733Z,10.24
2018-01-04T11:27:08.157Z,10.51
2018-01-04T11:29:36.508Z,10.87
2018-01-04T11:32:06.043Z,10.42
2018-01-04T11:34:34.405Z,10.97
2018-01-04T11:37:02.777Z,10.33
2018-01-04T11:39:31.174Z,11.28
2018-01-04T11:41:59.615Z,11.67
2018-01-04T11:44:28.127Z,11.54
2018-01-04T11:46:56.497Z,12.08
2018-01-04T11:49:24.897Z,11.56
2018-01-04T11:51:53.330Z,12.03
2018-01-04T11:56:56.304Z,10.92
2018-01-04T11:59:24.729Z,11.92
2018-01-04T12:01:53.076Z,11.08
2018-01-04T12:04:21.465Z,11.89
2018-01-04T12:06:49.819Z,11.99
2018-01-04T12:09:22.038Z,12.13
2018-01-04T12:11:50.394Z,11.47
2018-01-04T12:14:18.806Z,11.71
2018-01-04T12:16:47.174Z,12.07
2018-01-04T12:19:15.532Z,11.18
2018-01-04T12:21:43.899Z,11.51
2018-01-04T12:24:12.256Z,11.14
2018-01-04T12:26:40.680Z,11.17
2018-01-04T12:29:09.088Z,10.80
2018-01-04T12:31:37.452Z,11.21
2018-01-04T12:34:05.824Z,10.65
2018-01-04T12:36:34.192Z,10.64
2018-01-04T12:39:02.616Z,11.24
2018-01-04T12:41:31.040Z,11.03
2018-01-04T12:43:59.496Z,11.27
2018-01-04T12:46:27.866Z,11.90
2018-01-04T12:48:56.338Z,11.73
2018-01-04T12:51:24.725Z,12.09
2018-01-04T12:53:53.095Z,11.42
2018-01-04T12:56:21.456Z,11.76
2018-01-04T12:58:49.866Z,11.96
2018-01-04T13:01:18.233Z,11.85
2018-01-04T13:03:46.673Z,11.98
2018-01-04T13:06:15.037Z,11.68
2018-01-04T13:08:43.401Z,12.12
2018-01-04T13:11:11.750Z,12.79
2018-01-04T13:13:40.103Z,12.92
2018-01-04T13:16:08.494Z,13.17
2018-01-04T13:18:36.882Z,13.25
2018-01-04T13:21:06.006Z,13.95
2018-01-04T13:23:34.399Z,13.30
2018-01-04T13:26:02.790Z,12.54
2018-01-04T13:28:31.214Z,13.52
2018-01-04T13:30:59.569Z,14.23
2018-01-04T13:33:27.973Z,13.55
2018-01-04T13:35:56.335Z,13.97
2018-01-04T13:38:24.802Z,12.97
2018-01-04T13:40:53.214Z,13.08
2018-01-04T13:43:21.695Z,12.57
2018-01-04T13:45:50.116Z,12.96
2018-01-04T13:48:18.478Z,12.22
2018-01-04T13:50:46.845Z,12.07
2018-01-04T13:53:15.298Z,12.93
2018-01-04T13:55:43.639Z,11.83
2018-01-04T13:58:11.992Z,12.95
2018-01-04T14:00:40.413Z,13.39
2018-01-04T14:03:08.970Z,13.88
2018-01-04T14:05:37.360Z,13.70
2018-01-04T14:08:05.771Z,13.52
2018-01-04T14:10:34.152Z,13.23
2018-01-04T14:13:02.505Z,12.47
2018-01-04T14:15:30.954Z,13.22
2018-01-04T14:17:59.624Z,13.26
2018-01-04T14:20:28.035Z,12.91
2018-01-04T14:22:56.455Z,12.16
2018-01-04T14:25:24.838Z,11.96
2018-01-04T14:27:53.275Z,11.96
2018-01-04T14:30:21.628Z,12.70
2018-01-04T14:32:50.020Z,13.30
2018-01-04T14:35:18.388Z,11.19
2018-01-04T14:37:46.837Z,12.43
2018-01-04T14:40:15.202Z,11.33
2018-01-04T14:42:43.552Z,11.51
2018-01-04T14:45:12.095Z,11.47
2018-01-04T14:47:40.464Z,12.28
2018-01-04T14:50:08.812Z,12.39
2018-01-04T14:52:37.150Z,12.41
2018-01-04T14:55:05.535Z,11.88
2018-01-04T14:57:33.903Z,11.45
2018-01-04T15:00:02.287Z,10.93
2018-01-04T15:02:30.703Z,12.19
2018-01-04T15:04:59.116Z,11.74
2018-01-04T15:07:27.506Z,11.59
2018-01-04T15:09:55.913Z,11.65
2018-01-04T15:12:24.455Z,11.91
2018-01-04T15:14:52.826Z,12.80
2018-01-04T15:17:21.229Z,12.04
2018-01-04T15:19:49.551Z,11.77
2018-01-04T15:22:17.993Z,12.41
2018-01-04T15:24:46.351Z,11.63
2018-01-04T15:27:14.708Z,12.14
2018-01-04T15:29:43.062Z,12.57
2018-01-04T15:32:11.443Z,11.87
2018-01-04T15:34:39.818Z,11.82
2018-01-04T15:37:08.233Z,11.86
2018-01-04T15:39:36.598Z,11.83
2018-01-04T15:42:04.943Z,12.01
2018-01-04T15:44:33.312Z,12.02
2018-01-04T15:47:01.675Z,11.92
2018-01-04T15:49:30.059Z,11.97
2018-01-04T15:51:58.402Z,12.09
2018-01-04T15:54:26.807Z,12.38
2018-01-04T15:56:55.144Z,12.68
2018-01-04T15:59:23.533Z,12.67
2018-01-04T16:01:51.920Z,12.94
2018-01-04T16:04:20.320Z,12.93
2018-01-04T16:06:48.660Z,13.02
2018-01-04T16:09:17.024Z,12.13
2018-01-04T16:11:45.376Z,12.42
2018-01-04T16:14:13.744Z,12.00
2018-01-04T16:16:42.161Z,12.23
2018-01-04T16:19:10.532Z,13.29
2018-01-04T16:21:39.004Z,12.73
2018-01-04T16:24:07.354Z,13.01
2018-01-04T16:26:35.736Z,12.59
2018-01-04T16:29:04.102Z,12.54
2018-01-04T16:31:32.465Z,12.63
2018-01-04T16:34:00.861Z,12.97
2018-01-04T16:36:29.219Z,13.38
2018-01-04T16:38:57.576Z,12.99
2018-01-04T16:41:25.963Z,12.31
2018-01-04T16:43:54.326Z,13.39
2018-01-04T16:46:22.768Z,11.85
2018-01-04T16:48:51.143Z,13.01
2018-01-04T16:51:19.510Z,12.43
2018-01-04T16:53:47.891Z,13.35
2018-01-04T16:56:16.263Z,12.34
2018-01-04T16:58:44.615Z,13.38
2018-01-04T17:01:13.008Z,13.18
2018-01-04T17:03:41.371Z,13.27
2018-01-04T17:06:09.777Z,13.70
2018-01-04T17:08:38.144Z,13.66
2018-01-04T17:11:06.537Z,13.80
2018-01-04T17:13:34.896Z,13.84
2018-01-04T17:16:03.253Z,14.77
2018-01-04T17:18:31.644Z,14.97
2018-01-04T17:21:00.016Z,13.19
2018-01-04T17:23:28.432Z,12.85
2018-01-04T17:25:56.791Z,14.09
2018-01-04T17:28:25.157Z,13.51
2018-01-04T17:30:53.644Z,14.53
2018-01-04T17:33:22.019Z,13.62
2018-01-04T17:35:50.502Z,14.83
2018-01-04T17:38:18.885Z,14.31
2018-01-04T17:40:47.235Z,14.81
2018-01-04T17:43:15.588Z,14.55
2018-01-04T17:45:43.939Z,14.66
2018-01-04T17:48:12.328Z,14.28
2018-01-04T17:50:40.684Z,15.38
2018-01-04T17:53:09.077Z,15.05
2018-01-04T17:55:37.466Z,15.32
2018-01-04T17:58:05.826Z,14.60
2018-01-04T18:00:34.308Z,14.90
2018-01-04T18:03:02.657Z,14.76
2018-01-04T18:05:31.058Z,13.46
2018-01-04T18:07:59.453Z,13.15
2018-01-04T18:10:27.827Z,13.35
2018-01-04T18:12:56.189Z,13.38
2018-01-04T18:15:24.562Z,12.59
2018-01-04T18:17:52.941Z,13.66
2018-01-04T18:20:21.327Z,13.55
2018-01-04T18:22:49.717Z,14.52
2018-01-04T18:25:18.129Z,14.35
2018-01-04T18:27:46.491Z,13.35
2018-01-04T18:30:14.971Z,12.87
2018-01-04T18:32:43.428Z,13.04
2018-01-04T18:35:11.771Z,14.10
2018-01-04T18:37:40.147Z,13.69
2018-01-04T18:40:08.506Z,14.77
2018-01-04T18:42:36.895Z,14.64
2018-01-04T18:45:05.256Z,14.21
2018-01-04T18:47:33.651Z,13.11
2018-01-04T18:50:02.012Z,13.62
2018-01-04T18:52:30.408Z,12.96
2018-01-04T18:54:58.804Z,12.99
2018-01-04T18:57:27.263Z,12.91
2018-01-04T18:59:55.628Z,12.84
2018-01-04T19:02:24.031Z,13.44
2018-01-04T19:04:52.388Z,12.89
2018-01-04T19:07:20.781Z,12.86
2018-01-04T19:09:49.158Z,12.88
2018-01-04T19:12:17.506Z,12.38
2018-01-04T19:14:45.867Z,12.79
2018-01-04T19:17:14.476Z,12.90
2018-01-04T19:19:42.862Z,13.30
2018-01-04T19:22:11.383Z,13.18
2018-01-04T19:24:39.939Z,12.87
2018-01-04T19:27:08.295Z,12.95
2018-01-04T19:29:36.651Z,11.71
2018-01-04T19:34:39.642Z,13.35
2018-01-04T19:37:08.039Z,13.25
2018-01-04T19:39:36.416Z,13.02
2018-01-04T19:42:04.779Z,11.98
2018-01-04T19:44:33.269Z,12.19
2018-01-04T19:47:01.657Z,11.46
2018-01-04T19:49:30.015Z,12.76
2018-01-04T19:51:58.409Z,12.17
2018-01-04T19:54:26.792Z,11.66
2018-01-04T19:56:55.161Z,11.93
2018-01-04T19:59:23.523Z,11.60
2018-01-04T20:01:51.904Z,12.50
2018-01-04T20:04:20.326Z,12.82
2018-01-04T20:06:49.338Z,12.65
2018-01-04T20:09:17.725Z,12.86
2018-01-04T20:11:46.135Z,11.86
2018-01-04T20:14:14.508Z,11.81
2018-01-04T20:16:42.864Z,11.79
2018-01-04T20:19:11.228Z,12.56
2018-01-04T20:21:39.623Z,12.41
2018-01-04T20:24:08.060Z,12.42
2018-01-04T20:26:36.436Z,12.10
2018-01-04T20:29:04.816Z,12.33
2018-01-04T20:31:33.174Z,11.73
2018-01-04T20:34:01.621Z,12.13
2018-01-04T20:36:30.074Z,12.73
2018-01-04T20:38:58.420Z,12.23
2018-01-04T20:41:26.788Z,13.50
2018-01-04T20:43:55.174Z,12.88
2018-01-04T20:46:23.562Z,12.06
2018-01-04T20:48:51.916Z,11.80
2018-01-04T20:51:20.279Z,12.39
2018-01-04T20:53:48.643Z,12.48
2018-01-04T20:56:17.009Z,11.74
2018-01-04T20:58:45.399Z,12.93
2018-01-04T21:01:13.835Z,12.74
2018-01-04T21:03:42.215Z,12.45
2018-01-04T21:06:10.584Z,12.15
2018-01-04T21:08:40.071Z,11.96
2018-01-04T21:11:10.268Z,12.36
2018-01-04T21:13:38.624Z,12.77
2018-01-04T21:16:06.985Z,12.07
2018-01-04T21:18:35.347Z,11.99
2018-01-04T21:21:03.815Z,11.79
2018-01-04T21:23:32.171Z,12.11
2018-01-04T21:26:00.566Z,12.92
2018-01-04T21:28:28.920Z,11.90
2018-01-04T21:30:57.307Z,11.57
2018-01-04T21:33:25.655Z,11.62
2018-01-04T21:35:54.032Z,11.88
2018-01-04T21:38:22.426Z,12.26
2018-01-04T21:40:50.776Z,12.99
2018-01-04T21:43:19.156Z,12.16
2018-01-04T21:45:47.512Z,12.59
2018-01-04T21:48:15.919Z,11.53
2018-01-04T21:50:44.288Z,11.11
2018-01-04T21:53:12.930Z,12.11
2018-01-04T21:55:41.294Z,11.52
2018-01-04T21:58:09.700Z,11.04
2018-01-04T22:00:38.096Z,11.67
2018-01-04T22:03:06.612Z,11.91
2018-01-04T22:05:34.959Z,12.04
2018-01-04T22:08:03.337Z,11.05
2018-01-04T22:10:31.700Z,11.49
2018-01-04T22:13:00.103Z,11.36
2018-01-04T22:15:28.452Z,11.61
2018-01-04T22:17:56.831Z,11.06
2018-01-04T22:20:25.363Z,10.79
2018-01-04T22:22:53.739Z,11.02
2018-01-04T22:25:22.170Z,11.07
2018-01-04T22:27:50.567Z,11.11
2018-01-04T22:30:18.952Z,10.39
2018-01-04T22:32:47.324Z,10.95
2018-01-04T22:35:15.694Z,11.17
2018-01-04T22:37:44.063Z,10.85
2018-01-04T22:40:12.520Z,11.64
2018-01-04T22:42:40.933Z,12.34
2018-01-04T22:45:09.327Z,10.70
2018-01-04T22:47:37.691Z,11.11
2018-01-04T22:50:06.075Z,11.68
2018-01-04T22:52:34.419Z,11.36
2018-01-04T22:55:02.799Z,11.89
2018-01-04T22:57:31.163Z,11.93
2018-01-04T22:59:59.520Z,11.60
2018-01-04T23:02:27.887Z,10.98
2018-01-04T23:04:56.235Z,11.19
2018-01-04T23:07:24.631Z,11.26
2018-01-04T23:09:53.004Z,10.93
2018-01-04T23:12:21.355Z,11.16
2018-01-04T23:14:49.718Z,11.82
2018-01-04T23:17:18.073Z,11.82
2018-01-04T23:19:46.459Z,10.92
2018-01-04T23:22:14.826Z,10.71
2018-01-04T23:24:43.188Z,11.55
2018-01-04T23:27:11.580Z,10.36
2018-01-04T23:29:39.935Z,11.08
2018-01-04T23:32:08.293Z,10.99
2018-01-04T23:34:36.680Z,10.80
2018-01-04T23:37:05.042Z,12.11
2018-01-04T23:39:33.528Z,11.78
2018-01-04T23:42:01.900Z,10.45
2018-01-04T23:44:30.263Z,10.72
2018-01-04T23:46:58.612Z,11.28
2018-01-04T23:49:26.967Z,11.40
2018-01-04T23:51:55.343Z,11.21
2018-01-04T23:54:23.718Z,11.58
2018-01-04T23:56:52.085Z,11.73
2018-01-04T23:59:20.433Z,11.12
